createdAt,value
2022-10-01T00:02:00.149Z,8.25
2022-10-01T00:04:27.188Z,8.24
2022-10-01T00:06:53.488Z,8.21
2022-10-01T00:09:20.168Z,8.19
2022-10-01T00:11:46.374Z,8.16
2022-10-01T00:14:12.577Z,8.15
2022-10-01T00:16:39.061Z,8.12
2022-10-01T00:19:05.421Z,8.12
2022-10-01T00:21:32.602Z,8.12
2022-10-01T00:24:04.550Z,8.15
2022-10-01T00:26:36.425Z,8.18
2022-10-01T00:29:05.317Z,8.24
2022-10-01T00:31:32.753Z,8.23
2022-10-01T00:34:02.513Z,8.25
2022-10-01T00:36:29.980Z,8.26
2022-10-01T00:38:59.602Z,8.23
2022-10-01T00:41:28.954Z,8.23
2022-10-01T00:43:58.187Z,8.23
2022-10-01T00:46:37.099Z,8.25
2022-10-01T00:49:08.321Z,8.26
2022-10-01T00:51:40.512Z,8.31
2022-10-01T00:54:16.030Z,8.38
2022-10-01T00:56:43.389Z,8.40
2022-10-01T00:59:11.151Z,8.36
2022-10-01T01:01:38.774Z,8.32
2022-10-01T01:04:15.718Z,8.28
2022-10-01T01:06:47.293Z,8.26
2022-10-01T01:09:13.693Z,8.23
2022-10-01T01:11:55.348Z,8.20
2022-10-01T01:14:47.298Z,8.18
2022-10-01T01:17:24.453Z,8.13
2022-10-01T01:20:16.655Z,8.12
2022-10-01T01:22:53.965Z,8.05
2022-10-01T01:25:30.307Z,7.99
2022-10-01T01:28:12.615Z,7.97
2022-10-01T01:30:40.639Z,7.99
2022-10-01T01:33:14.944Z,7.99
2022-10-01T01:35:48.535Z,7.97
2022-10-01T01:38:23.600Z,7.96
2022-10-01T01:40:55.089Z,7.94
2022-10-01T01:43:28.713Z,7.90
2022-10-01T01:45:55.848Z,7.87
2022-10-01T01:48:23.729Z,7.83
2022-10-01T01:50:59.059Z,7.81
2022-10-01T01:53:25.729Z,7.78
2022-10-01T01:55:52.826Z,7.76
2022-10-01T01:58:19.886Z,7.74
2022-10-01T02:00:51.652Z,7.69
2022-10-01T02:03:21.274Z,7.61
2022-10-01T02:06:08.756Z,7.48
2022-10-01T02:08:49.150Z,7.34
2022-10-01T02:11:22.378Z,7.25
2022-10-01T02:14:12.564Z,7.17
2022-10-01T02:16:41.839Z,7.08
2022-10-01T02:19:32.923Z,7.01
2022-10-01T02:22:10.323Z,6.97
2022-10-01T02:24:45.420Z,6.95
2022-10-01T02:27:19.357Z,6.91
2022-10-01T02:29:45.713Z,6.89
2022-10-01T02:32:14.806Z,6.86
2022-10-01T02:34:43.428Z,6.85
2022-10-01T02:37:11.296Z,6.81
2022-10-01T02:39:42.685Z,6.75
2022-10-01T02:42:13.870Z,6.72
2022-10-01T02:44:44.280Z,6.73
2022-10-01T02:47:22.514Z,6.73
2022-10-01T02:49:49.560Z,6.74
2022-10-01T02:52:30.506Z,6.75
2022-10-01T02:55:23.411Z,6.81
2022-10-01T02:57:49.654Z,6.84
2022-10-01T03:00:21.027Z,6.81
2022-10-01T03:02:48.973Z,6.78
2022-10-01T03:05:16.887Z,6.79
2022-10-01T03:07:43.336Z,6.81
2022-10-01T03:10:11.372Z,6.79
2022-10-01T03:12:40.410Z,6.77
2022-10-01T03:15:07.360Z,6.75
2022-10-01T03:17:35.441Z,6.74
2022-10-01T03:20:02.354Z,6.75
2022-10-01T03:22:29.007Z,6.77
2022-10-01T03:24:55.338Z,6.78
2022-10-01T03:27:21.707Z,6.76
2022-10-01T03:29:48.528Z,6.75
2022-10-01T03:32:15.057Z,6.74
2022-10-01T03:34:41.411Z,6.71
2022-10-01T03:37:07.898Z,6.63
2022-10-01T03:39:34.370Z,6.60
2022-10-01T03:42:01.492Z,6.59
2022-10-01T03:44:27.720Z,6.62
2022-10-01T03:46:54.398Z,6.64
2022-10-01T03:49:20.628Z,6.67
2022-10-01T03:51:46.839Z,6.67
2022-10-01T03:54:13.502Z,6.64
2022-10-01T03:56:41.854Z,6.64
2022-10-01T03:59:10.231Z,6.61
2022-10-01T04:01:38.611Z,6.57
2022-10-01T04:04:05.768Z,6.53
2022-10-01T04:06:32.395Z,6.54
2022-10-01T04:08:58.979Z,6.54
2022-10-01T04:11:25.443Z,6.55
2022-10-01T04:13:51.738Z,6.54
2022-10-01T04:16:18.110Z,6.54
2022-10-01T04:18:44.496Z,6.54
2022-10-01T04:21:12.134Z,6.53
2022-10-01T04:23:38.389Z,6.52
2022-10-01T04:26:04.915Z,6.51
2022-10-01T04:28:31.601Z,6.51
2022-10-01T04:31:14.213Z,6.50
2022-10-01T04:33:40.780Z,6.49
2022-10-01T04:36:07.312Z,6.49
2022-10-01T04:38:34.071Z,6.49
2022-10-01T04:41:00.513Z,6.48
2022-10-01T04:43:26.763Z,6.48
2022-10-01T04:45:52.967Z,6.48
2022-10-01T04:48:19.218Z,6.48
2022-10-01T04:50:45.799Z,6.45
2022-10-01T04:53:12.186Z,6.40
2022-10-01T04:55:38.419Z,6.34
2022-10-01T04:58:04.641Z,6.30
2022-10-01T05:00:30.950Z,6.23
2022-10-01T05:02:57.489Z,6.19
2022-10-01T05:05:26.484Z,6.15
2022-10-01T05:07:52.716Z,6.12
2022-10-01T05:10:21.731Z,6.11
2022-10-01T05:12:48.980Z,6.10
2022-10-01T05:15:16.570Z,6.08
2022-10-01T05:17:43.400Z,6.07
2022-10-01T05:20:19.746Z,6.05
2022-10-01T05:22:48.214Z,6.01
2022-10-01T05:25:15.684Z,5.99
2022-10-01T05:27:41.922Z,5.98
2022-10-01T05:30:09.877Z,5.98
2022-10-01T05:32:36.972Z,5.99
2022-10-01T05:35:07.656Z,6.05
2022-10-01T05:37:35.526Z,6.09
2022-10-01T05:40:02.985Z,6.12
2022-10-01T05:42:29.425Z,6.17
2022-10-01T05:44:56.077Z,6.23
2022-10-01T05:47:22.472Z,6.28
2022-10-01T05:49:48.925Z,6.34
2022-10-01T05:52:15.774Z,6.40
2022-10-01T05:54:42.205Z,6.42
2022-10-01T05:57:08.759Z,6.43
2022-10-01T05:59:35.504Z,6.47
2022-10-01T06:02:03.519Z,6.46
2022-10-01T06:04:30.717Z,6.46
2022-10-01T06:06:58.159Z,6.47
2022-10-01T06:09:24.563Z,6.49
2022-10-01T06:11:50.824Z,6.52
2022-10-01T06:14:17.282Z,6.57
2022-10-01T06:16:43.854Z,6.64
2022-10-01T06:19:10.190Z,6.72
2022-10-01T06:21:37.097Z,6.80
2022-10-01T06:24:04.540Z,6.86
2022-10-01T06:26:31.249Z,6.91
2022-10-01T06:28:57.724Z,6.95
2022-10-01T06:31:24.306Z,6.98
2022-10-01T06:33:50.745Z,7.04
2022-10-01T06:36:17.255Z,7.11
2022-10-01T06:38:44.265Z,7.19
2022-10-01T06:41:11.608Z,7.24
2022-10-01T06:43:38.261Z,7.30
2022-10-01T06:46:05.280Z,7.38
2022-10-01T06:48:34.707Z,7.46
2022-10-01T06:51:01.562Z,7.53
2022-10-01T06:53:28.710Z,7.61
2022-10-01T06:55:55.276Z,7.67
2022-10-01T06:58:26.796Z,7.75
2022-10-01T07:00:59.216Z,7.84
2022-10-01T07:03:25.539Z,7.91
2022-10-01T07:05:51.841Z,8.00
2022-10-01T07:08:18.694Z,8.05
2022-10-01T07:10:44.979Z,8.11
2022-10-01T07:13:20.153Z,8.19
2022-10-01T07:15:46.605Z,8.26
2022-10-01T07:18:13.430Z,8.32
2022-10-01T07:20:40.623Z,8.39
2022-10-01T07:23:10.677Z,8.46
2022-10-01T07:25:38.468Z,8.54
2022-10-01T07:28:07.873Z,8.64
2022-10-01T07:30:34.549Z,8.74
2022-10-01T07:33:00.778Z,8.82
2022-10-01T07:35:28.924Z,8.91
2022-10-01T07:37:55.203Z,8.99
2022-10-01T07:40:22.118Z,9.05
2022-10-01T07:42:56.118Z,9.12
2022-10-01T07:45:23.654Z,9.20
2022-10-01T07:47:57.375Z,9.26
2022-10-01T07:50:25.257Z,9.32
2022-10-01T07:52:56.651Z,9.37
2022-10-01T07:55:26.218Z,9.44
2022-10-01T07:57:54.672Z,9.52
2022-10-01T08:00:22.645Z,9.62
2022-10-01T08:02:52.659Z,9.70
2022-10-01T08:05:35.888Z,9.77
2022-10-01T08:08:04.810Z,9.87
2022-10-01T08:10:34.700Z,9.95
2022-10-01T08:13:24.110Z,10.03
2022-10-01T08:15:53.898Z,10.14
2022-10-01T08:18:21.854Z,10.23
2022-10-01T08:20:48.352Z,10.33
2022-10-01T08:23:16.540Z,10.40
2022-10-01T08:25:44.085Z,10.49
2022-10-01T08:28:11.287Z,10.53
2022-10-01T08:30:39.131Z,10.61
2022-10-01T08:33:06.400Z,10.71
2022-10-01T08:35:33.248Z,10.80
2022-10-01T08:38:06.780Z,10.86
2022-10-01T08:40:37.955Z,10.95
2022-10-01T08:43:06.717Z,11.05
2022-10-01T08:45:44.185Z,11.13
2022-10-01T08:48:37.919Z,11.21
2022-10-01T08:51:14.917Z,11.31
2022-10-01T08:53:48.245Z,11.39
2022-10-01T08:56:23.691Z,11.46
2022-10-01T08:58:59.166Z,11.52
2022-10-01T09:01:26.659Z,11.56
2022-10-01T09:03:53.373Z,11.63
2022-10-01T09:06:24.873Z,11.69
2022-10-01T09:09:07.572Z,11.74
2022-10-01T09:11:47.941Z,11.80
2022-10-01T09:14:50.531Z,11.87
2022-10-01T09:17:39.071Z,11.93
2022-10-01T09:20:37.276Z,12.00
2022-10-01T09:23:27.685Z,12.06
2022-10-01T09:25:56.461Z,12.12
2022-10-01T09:28:24.527Z,12.15
2022-10-01T09:31:23.081Z,12.21
2022-10-01T09:33:55.708Z,12.32
2022-10-01T09:36:51.386Z,12.40
2022-10-01T09:39:32.600Z,12.46
2022-10-01T09:41:59.031Z,12.52
2022-10-01T09:44:28.575Z,12.55
2022-10-01T09:46:55.558Z,12.63
2022-10-01T09:49:43.309Z,12.70
2022-10-01T09:52:19.875Z,12.77
2022-10-01T09:55:18.265Z,12.82
2022-10-01T09:57:50.545Z,12.85
2022-10-01T10:00:23.767Z,12.86
2022-10-01T10:02:53.332Z,12.88
2022-10-01T10:05:24.007Z,12.91
2022-10-01T10:07:58.014Z,12.95
2022-10-01T10:10:36.116Z,12.98
2022-10-01T10:13:04.637Z,13.00
2022-10-01T10:15:32.363Z,13.06
2022-10-01T10:18:20.376Z,13.13
2022-10-01T10:20:53.269Z,13.20
2022-10-01T10:23:23.092Z,13.24
2022-10-01T10:26:06.613Z,13.30
2022-10-01T10:28:44.014Z,13.35
2022-10-01T10:31:15.904Z,13.42
2022-10-01T10:34:06.060Z,13.47
2022-10-01T10:36:36.129Z,13.55
2022-10-01T10:39:05.481Z,13.62
2022-10-01T10:41:33.890Z,13.70
2022-10-01T10:44:06.541Z,13.78
2022-10-01T10:46:36.907Z,13.86
2022-10-01T10:49:25.628Z,13.98
2022-10-01T10:51:54.181Z,14.10
2022-10-01T10:54:27.396Z,14.19
2022-10-01T10:57:02.718Z,14.27
2022-10-01T10:59:31.645Z,14.34
2022-10-01T11:02:04.147Z,14.37
2022-10-01T11:04:40.889Z,14.43
2022-10-01T11:07:08.949Z,14.53
2022-10-01T11:10:07.123Z,14.62
2022-10-01T11:12:56.657Z,14.75
2022-10-01T11:15:42.874Z,14.88
2022-10-01T11:18:32.084Z,15.06
2022-10-01T11:21:21.761Z,15.19
2022-10-01T11:24:10.014Z,15.27
2022-10-01T11:27:19.464Z,15.35
2022-10-01T11:30:05.475Z,15.41
2022-10-01T11:32:38.385Z,15.48
2022-10-01T11:35:24.892Z,15.53
2022-10-01T11:38:05.838Z,15.54
2022-10-01T11:40:41.159Z,15.54
2022-10-01T11:43:26.391Z,15.58
2022-10-01T11:46:02.724Z,15.59
2022-10-01T11:48:40.828Z,15.59
2022-10-01T11:51:15.735Z,15.62
2022-10-01T11:54:01.054Z,15.61
2022-10-01T11:56:47.209Z,15.59
2022-10-01T11:59:49.287Z,15.62
2022-10-01T12:02:31.760Z,15.69
2022-10-01T12:05:05.369Z,15.79
2022-10-01T12:07:44.518Z,15.88
2022-10-01T12:10:42.685Z,15.94
2022-10-01T12:13:21.734Z,16.02
2022-10-01T12:15:57.261Z,16.07
2022-10-01T12:18:34.312Z,16.12
2022-10-01T12:21:05.831Z,16.18
2022-10-01T12:23:42.598Z,16.28
2022-10-01T12:26:40.754Z,16.34
2022-10-01T12:29:13.696Z,16.40
2022-10-01T12:32:12.953Z,16.43
2022-10-01T12:35:01.725Z,16.47
2022-10-01T12:37:46.092Z,16.62
2022-10-01T12:40:30.127Z,16.71
2022-10-01T12:43:19.928Z,16.75
2022-10-01T12:46:18.075Z,16.72
2022-10-01T12:49:03.360Z,16.71
2022-10-01T12:51:51.810Z,16.72
2022-10-01T12:54:49.049Z,16.76
2022-10-01T12:57:47.164Z,16.68
2022-10-01T13:00:35.216Z,16.54
2022-10-01T13:03:24.746Z,16.45
2022-10-01T13:06:00.615Z,16.35
2022-10-01T13:08:39.646Z,16.23
2022-10-01T13:11:36.734Z,16.15
2022-10-01T13:14:06.435Z,16.15
2022-10-01T13:16:57.654Z,16.67
2022-10-01T13:19:34.420Z,17.69
2022-10-01T13:22:19.997Z,18.46
2022-10-01T13:25:00.566Z,19.05
2022-10-01T13:27:40.491Z,19.58
2022-10-01T13:30:24.046Z,19.67
2022-10-01T13:33:21.005Z,19.47
2022-10-01T13:35:55.481Z,19.07
2022-10-01T13:38:42.842Z,18.72
2022-10-01T13:41:20.976Z,18.48
2022-10-01T13:44:03.289Z,18.21
2022-10-01T13:46:32.222Z,17.93
2022-10-01T13:49:18.356Z,17.69
2022-10-01T13:51:45.419Z,17.57
2022-10-01T13:54:24.575Z,17.54
2022-10-01T13:56:51.123Z,17.80
2022-10-01T13:59:38.247Z,18.15
2022-10-01T14:02:27.652Z,18.54
2022-10-01T14:04:55.857Z,18.99
2022-10-01T14:07:27.173Z,19.15
2022-10-01T14:09:59.970Z,19.41
2022-10-01T14:12:47.898Z,19.65
2022-10-01T14:15:46.260Z,19.61
2022-10-01T14:18:20.396Z,19.22
2022-10-01T14:20:58.832Z,18.77
2022-10-01T14:23:38.401Z,18.34
2022-10-01T14:26:19.345Z,17.96
2022-10-01T14:29:01.672Z,17.63
2022-10-01T14:32:10.471Z,17.26
2022-10-01T14:34:43.367Z,16.91
2022-10-01T14:37:17.498Z,16.60
2022-10-01T14:39:44.814Z,16.38
2022-10-01T14:42:17.734Z,16.15
2022-10-01T14:44:46.117Z,15.88
2022-10-01T14:47:15.893Z,15.65
2022-10-01T14:49:42.151Z,15.44
2022-10-01T14:52:29.052Z,15.24
2022-10-01T14:55:22.834Z,15.03
2022-10-01T14:57:53.524Z,14.84
2022-10-01T15:00:23.852Z,14.68
2022-10-01T15:02:52.646Z,14.56
2022-10-01T15:05:29.424Z,14.44
2022-10-01T15:07:56.309Z,14.34
2022-10-01T15:10:27.136Z,14.25
2022-10-01T15:12:54.992Z,14.18
2022-10-01T15:15:28.793Z,14.13
2022-10-01T15:17:55.182Z,14.05
2022-10-01T15:20:21.551Z,13.98
2022-10-01T15:22:49.753Z,13.89
2022-10-01T15:25:21.704Z,13.80
2022-10-01T15:27:48.715Z,13.73
2022-10-01T15:30:17.545Z,13.67
2022-10-01T15:32:48.088Z,13.59
2022-10-01T15:35:18.812Z,13.50
2022-10-01T15:37:50.103Z,13.42
2022-10-01T15:40:24.580Z,13.33
2022-10-01T15:43:10.985Z,13.27
2022-10-01T15:45:37.265Z,13.19
2022-10-01T15:48:03.592Z,13.14
2022-10-01T15:50:36.444Z,13.09
2022-10-01T15:53:09.446Z,13.05
2022-10-01T15:55:43.344Z,12.97
2022-10-01T15:58:09.470Z,12.91
2022-10-01T16:00:56.997Z,12.86
2022-10-01T16:03:28.385Z,12.79
2022-10-01T16:05:55.229Z,12.73
2022-10-01T16:08:33.408Z,12.63
2022-10-01T16:11:31.369Z,12.55
2022-10-01T16:14:20.326Z,12.47
2022-10-01T16:16:47.742Z,12.41
2022-10-01T16:19:32.242Z,12.38
2022-10-01T16:22:19.566Z,12.34
2022-10-01T16:24:55.140Z,12.28
2022-10-01T16:27:28.507Z,12.23
2022-10-01T16:29:59.108Z,12.21
2022-10-01T16:32:29.086Z,12.18
2022-10-01T16:35:15.589Z,12.15
2022-10-01T16:37:44.658Z,12.12
2022-10-01T16:40:15.943Z,12.09
2022-10-01T16:42:44.061Z,12.05
2022-10-01T16:45:17.201Z,12.05
2022-10-01T16:47:44.735Z,12.05
2022-10-01T16:50:13.413Z,12.04
2022-10-01T16:52:40.166Z,12.02
2022-10-01T16:55:35.580Z,12.02
2022-10-01T16:58:03.242Z,12.00
2022-10-01T17:00:29.732Z,11.98
2022-10-01T17:02:57.034Z,11.97
2022-10-01T17:05:25.152Z,11.95
2022-10-01T17:07:53.279Z,11.93
2022-10-01T17:10:21.757Z,11.90
2022-10-01T17:12:48.653Z,11.86
2022-10-01T17:15:18.931Z,11.83
2022-10-01T17:17:45.728Z,11.79
2022-10-01T17:20:13.109Z,11.77
2022-10-01T17:22:42.026Z,11.76
2022-10-01T17:25:14.606Z,11.74
2022-10-01T17:27:40.835Z,11.72
2022-10-01T17:30:07.675Z,11.70
2022-10-01T17:32:36.485Z,11.68
2022-10-01T17:35:03.614Z,11.69
2022-10-01T17:37:30.663Z,11.68
2022-10-01T17:39:56.966Z,11.67
2022-10-01T17:42:23.194Z,11.66
2022-10-01T17:44:49.540Z,11.64
2022-10-01T17:47:15.790Z,11.62
2022-10-01T17:49:42.940Z,11.58
2022-10-01T17:52:09.776Z,11.57
2022-10-01T17:54:36.941Z,11.56
2022-10-01T17:57:03.298Z,11.57
2022-10-01T17:59:29.557Z,11.57
2022-10-01T18:01:56.556Z,11.57
2022-10-01T18:04:25.128Z,11.56
2022-10-01T18:06:56.025Z,11.56
2022-10-01T18:09:24.544Z,11.56
2022-10-01T18:11:50.843Z,11.54
2022-10-01T18:14:17.094Z,11.52
2022-10-01T18:16:43.352Z,11.50
2022-10-01T18:21:58.552Z,11.47
2022-10-01T18:24:25.063Z,11.46
2022-10-01T18:26:51.395Z,11.45
2022-10-01T18:29:20.904Z,11.45
2022-10-01T18:31:51.979Z,11.45
2022-10-01T18:34:29.159Z,11.47
2022-10-01T18:37:02.565Z,11.47
2022-10-01T18:39:38.011Z,11.46
2022-10-01T18:42:39.614Z,11.46
2022-10-01T18:45:13.330Z,11.44
2022-10-01T18:47:55.421Z,11.43
2022-10-01T18:50:39.800Z,11.40
2022-10-01T18:53:30.927Z,11.40
2022-10-01T18:56:13.146Z,11.38
2022-10-01T18:58:45.374Z,11.39
2022-10-01T19:01:41.157Z,11.40
2022-10-01T19:04:45.827Z,11.42
2022-10-01T19:07:44.167Z,11.44
2022-10-01T19:10:24.359Z,11.44
2022-10-01T19:13:05.859Z,11.42
2022-10-01T19:15:41.682Z,11.40
2022-10-01T19:18:23.817Z,11.36
2022-10-01T19:21:20.994Z,11.32
2022-10-01T19:24:06.022Z,11.27
2022-10-01T19:26:44.247Z,11.22
2022-10-01T19:29:42.748Z,11.16
2022-10-01T19:32:17.258Z,11.07
2022-10-01T19:34:59.775Z,11.02
2022-10-01T19:37:35.732Z,11.03
2022-10-01T19:40:13.237Z,11.01
2022-10-01T19:42:45.549Z,11.02
2022-10-01T19:45:24.870Z,11.02
2022-10-01T19:48:10.294Z,11.01
2022-10-01T19:50:42.578Z,10.99
2022-10-01T19:53:28.494Z,10.94
2022-10-01T19:55:59.223Z,10.89
2022-10-01T19:58:26.118Z,10.85
2022-10-01T20:00:57.808Z,10.77
2022-10-01T20:03:35.513Z,10.71
2022-10-01T20:06:07.856Z,10.68
2022-10-01T20:08:45.386Z,10.63
2022-10-01T20:11:15.098Z,10.60
2022-10-01T20:13:54.099Z,10.59
2022-10-01T20:16:43.040Z,10.59
2022-10-01T20:19:32.317Z,10.56
2022-10-01T20:22:22.229Z,10.50
2022-10-01T20:25:02.207Z,10.49
2022-10-01T20:27:42.258Z,10.49
2022-10-01T20:30:17.258Z,10.46
2022-10-01T20:33:19.258Z,10.46
2022-10-01T20:36:09.978Z,10.48
2022-10-01T20:38:43.869Z,10.46
2022-10-01T20:41:20.543Z,10.46
2022-10-01T20:43:52.025Z,10.46
2022-10-01T20:46:37.486Z,10.47
2022-10-01T20:49:27.251Z,10.49
2022-10-01T20:52:01.485Z,10.51
2022-10-01T20:54:38.073Z,10.52
2022-10-01T20:57:19.420Z,10.54
2022-10-01T20:59:50.797Z,10.50
2022-10-01T21:02:28.045Z,10.48
2022-10-01T21:05:10.301Z,10.46
2022-10-01T21:07:48.004Z,10.48
2022-10-01T21:10:41.750Z,10.51
2022-10-01T21:13:28.741Z,10.53
2022-10-01T21:16:11.009Z,10.52
2022-10-01T21:18:46.024Z,10.54
2022-10-01T21:21:17.929Z,10.55
2022-10-01T21:23:44.370Z,10.54
2022-10-01T21:26:34.930Z,10.54
2022-10-01T21:29:18.538Z,10.51
2022-10-01T21:31:54.668Z,10.50
2022-10-01T21:34:34.476Z,10.48
2022-10-01T21:37:15.724Z,10.46
2022-10-01T21:40:03.179Z,10.44
2022-10-01T21:43:02.157Z,10.44
2022-10-01T21:45:31.086Z,10.43
2022-10-01T21:48:26.765Z,10.41
2022-10-01T21:51:06.797Z,10.39
2022-10-01T21:54:04.036Z,10.41
2022-10-01T21:56:54.271Z,10.38
2022-10-01T21:59:23.527Z,10.35
2022-10-01T22:02:14.151Z,10.34
2022-10-01T22:05:31.732Z,10.33
2022-10-01T22:08:14.337Z,10.34
2022-10-01T22:10:45.691Z,10.35
2022-10-01T22:13:35.250Z,10.38
2022-10-01T22:16:11.629Z,10.42
2022-10-01T22:18:48.600Z,10.44
2022-10-01T22:21:24.182Z,10.44
2022-10-01T22:23:58.355Z,10.42
2022-10-01T22:26:29.302Z,10.44
2022-10-01T22:28:56.973Z,10.45
2022-10-01T22:31:32.066Z,10.46
2022-10-01T22:34:06.813Z,10.50
2022-10-01T22:36:42.793Z,10.55
2022-10-01T22:39:17.306Z,10.59
2022-10-01T22:41:48.587Z,10.62
2022-10-01T22:44:21.801Z,10.63
2022-10-01T22:46:57.142Z,10.66
2022-10-01T22:49:55.340Z,10.70
2022-10-01T22:52:53.778Z,10.73
2022-10-01T22:55:29.910Z,10.76
2022-10-01T22:58:09.798Z,10.77
2022-10-01T23:00:46.919Z,10.78
2022-10-01T23:03:45.106Z,10.78
2022-10-01T23:06:36.003Z,10.78
2022-10-01T23:09:12.446Z,10.78
2022-10-01T23:11:59.595Z,10.78
2022-10-01T23:14:56.894Z,10.79
2022-10-01T23:17:29.565Z,10.82
2022-10-01T23:20:25.082Z,10.84
2022-10-01T23:23:15.990Z,10.83
2022-10-01T23:25:53.896Z,10.81
2022-10-01T23:28:36.034Z,10.79
2022-10-01T23:31:24.175Z,10.78
2022-10-01T23:33:59.480Z,10.75
2022-10-01T23:36:41.022Z,10.74
2022-10-01T23:39:39.863Z,10.72
2022-10-01T23:42:38.017Z,10.71
2022-10-01T23:45:12.671Z,10.72
2022-10-01T23:48:11.882Z,10.72
2022-10-01T23:50:48.605Z,10.73
2022-10-01T23:53:20.281Z,10.74
2022-10-01T23:56:17.967Z,10.73
2022-10-01T23:59:00.981Z,10.70
